This is the latest recevied weather packets stored in our database for station/object N6WDO. If no packets are shown the sender has not sent any weather packets the latest 10 day(s).
| Time | Temp. | Humidity | Pressure | Rain* | Wind** | Luminosity | Snow |
|---|---|---|---|---|---|---|---|
| 1777826615 | 17.78° C | 75% | 1013.3 hPa | 0 mm | - | 494 W/m² | - |
| 1777826311 | 17.78° C | 76% | 1013.4 hPa | 0 mm | - | 458 W/m² | - |
| 1777826009 | 18.33° C | 74% | 1013.4 hPa | 0 mm | - | 424 W/m² | - |
| 1777825705 | 18.33° C | 74% | 1013.4 hPa | 0 mm | - | 442 W/m² | - |
| 1777825403 | 17.78° C | 75% | 1013.3 hPa | 0 mm | - | 427 W/m² | - |
| 1777825100 | 16.67° C | 79% | 1013.3 hPa | 0 mm | - | 417 W/m² | - |
| 1777824796 | 16.67° C | 81% | 1013.2 hPa | 0 mm | - | 403 W/m² | - |
| 1777824493 | 17.22° C | 78% | 1013.1 hPa | 0 mm | - | 352 W/m² | - |
| 1777824189 | 16.67° C | 77% | 1013.1 hPa | 0 mm | - | 380 W/m² | - |
| 1777823885 | 15.56° C | 81% | 1013.3 hPa | 0 mm | - | 369 W/m² | - |
| 1777823583 | 15.56° C | 82% | 1013.1 hPa | 0 mm | - | 302 W/m² | - |
| 1777823279 | 16.11° C | 81% | 1013.2 hPa | 0 mm | - | 143 W/m² | - |
| 1777822977 | 16.11° C | 80% | 1012.7 hPa | 0 mm | - | 319 W/m² | - |
| 1777822675 | 16.11° C | 81% | 1012.8 hPa | 0 mm | - | 115 W/m² | - |
| 1777822373 | 16.11° C | 80% | 1013.2 hPa | 0 mm | - | 279 W/m² | - |
| 1777822070 | 15.56° C | 80% | 1012.7 hPa | 0 mm | - | 132 W/m² | - |
| 1777821768 | 16.11° C | 78% | 1012.8 hPa | 0 mm | - | 101 W/m² | - |
| 1777821464 | 15.56° C | 76% | 1012.7 hPa | 0 mm | - | 214 W/m² | - |
| 1777821162 | 15.56° C | 77% | 1012.6 hPa | 0 mm | - | 106 W/m² | - |
| 1777820859 | 15.56° C | 79% | 1012.7 hPa | 0 mm | - | 81 W/m² | - |
| 1777820555 | 15.56° C | 79% | 1013 hPa | 0 mm | - | 86 W/m² | - |
| 1777820252 | 15.56° C | 77% | 1013 hPa | 0 mm | - | 79 W/m² | - |
| 1777819949 | 15° C | 78% | 1012.6 hPa | 0 mm | - | 98 W/m² | - |
| 1777819646 | 15° C | 78% | 1012.6 hPa | 0 mm | - | 99 W/m² | - |
| 1777819345 | 15° C | 78% | 1012.5 hPa | 0 mm | - | 45 W/m² | - |
* Rain latest hour (hover to see other rain measurements)
** Current wind speed in m/s (hover to see current wind gust speed)